createdAt,value
2018-11-20T00:02:51.323Z,5.73
2018-11-20T00:07:18.719Z,5.70
2018-11-20T00:11:38.727Z,4.80
2018-11-20T00:16:15.670Z,5.17
2018-11-20T00:20:49.161Z,5.60
2018-11-20T00:25:26.371Z,6.10
2018-11-20T00:29:47.877Z,6.00
2018-11-20T00:34:09.352Z,5.00
2018-11-20T00:38:39.933Z,5.50
2018-11-20T00:43:02.273Z,5.53
2018-11-20T00:47:22.577Z,5.33
2018-11-20T00:51:43.610Z,6.00
2018-11-20T00:56:26.507Z,6.23
2018-11-20T01:00:45.502Z,6.10
2018-11-20T01:05:05.847Z,6.40
2018-11-20T01:09:33.597Z,6.70
2018-11-20T01:13:56.866Z,7.33
2018-11-20T01:18:24.358Z,6.83
2018-11-20T01:22:55.198Z,7.17
2018-11-20T01:27:15.176Z,6.57
2018-11-20T01:31:26.173Z,7.50
2018-11-20T01:35:53.771Z,7.33
2018-11-20T01:40:15.355Z,8.57
2018-11-20T01:44:32.915Z,9.23
2018-11-20T01:49:03.090Z,9.27
2018-11-20T01:53:16.497Z,9.23
2018-11-20T01:57:43.385Z,10.53
2018-11-20T02:02:03.694Z,9.63
2018-11-20T02:06:25.226Z,10.83
2018-11-20T02:11:01.863Z,10.17
2018-11-20T02:15:29.305Z,10.77
2018-11-20T02:19:49.248Z,9.97
2018-11-20T02:24:08.523Z,11.07
2018-11-20T02:28:42.205Z,9.70
2018-11-20T02:33:00.826Z,11.47
2018-11-20T02:37:20.745Z,11.47
2018-11-20T02:41:42.210Z,11.47
2018-11-20T02:46:12.759Z,11.47
2018-11-20T02:50:45.181Z,11.70
2018-11-20T02:55:04.664Z,11.00
2018-11-20T02:59:38.127Z,12.27
2018-11-20T03:03:58.472Z,10.67
2018-11-20T03:08:12.819Z,12.80
2018-11-20T03:12:45.105Z,12.90
2018-11-20T03:17:06.610Z,12.60
2018-11-20T03:21:20.904Z,12.57
2018-11-20T03:26:07.885Z,11.10
2018-11-20T03:31:03.904Z,14.33
2018-11-20T03:35:40.433Z,12.87
2018-11-20T03:40:00.747Z,13.20
2018-11-20T03:44:24.946Z,12.27
2018-11-20T03:48:57.039Z,13.37
2018-11-20T03:53:10.790Z,14.20
2018-11-20T03:57:31.278Z,12.73
2018-11-20T04:01:52.573Z,11.40
2018-11-20T04:06:14.163Z,14.23
2018-11-20T04:10:34.522Z,13.10
2018-11-20T04:15:01.996Z,13.30
2018-11-20T04:19:22.694Z,13.03
2018-11-20T04:23:53.298Z,13.73
2018-11-20T04:28:21.130Z,12.63
2018-11-20T04:32:41.368Z,12.73
2018-11-20T04:37:26.065Z,13.60
2018-11-20T04:41:41.764Z,13.43
2018-11-20T04:46:03.820Z,12.53
2018-11-20T04:50:25.455Z,12.83
2018-11-20T04:54:49.950Z,14.30
2018-11-20T04:59:02.382Z,14.17
2018-11-20T05:03:22.792Z,14.23
2018-11-20T05:07:44.357Z,12.87
2018-11-20T05:12:04.763Z,14.73
2018-11-20T05:16:17.148Z,13.90
2018-11-20T05:20:44.667Z,17.23
2018-11-20T05:24:57.851Z,13.13
2018-11-20T05:29:19.378Z,13.03
2018-11-20T05:33:52.894Z,12.53
2018-11-20T05:38:05.015Z,13.87
2018-11-20T05:42:26.519Z,13.00
2018-11-20T05:46:48.415Z,13.77
2018-11-20T05:50:59.902Z,10.87
2018-11-20T05:55:10.394Z,12.30
2018-11-20T05:59:23.389Z,10.60
2018-11-20T06:03:54.016Z,12.60
2018-11-20T06:08:08.808Z,12.27
2018-11-20T06:12:29.252Z,10.50
2018-11-20T06:16:49.702Z,11.70
2018-11-20T06:21:20.087Z,10.67
2018-11-20T06:25:46.392Z,12.17
2018-11-20T06:30:19.493Z,11.73
2018-11-20T06:34:39.714Z,10.47
2018-11-20T06:38:59.689Z,11.07
2018-11-20T06:43:19.796Z,10.20
2018-11-20T06:47:39.915Z,10.53
2018-11-20T06:52:04.382Z,9.90
2018-11-20T06:56:28.837Z,10.83
2018-11-20T07:00:50.440Z,10.00
2018-11-20T07:05:11.959Z,9.10
2018-11-20T07:09:33.491Z,10.67
2018-11-20T07:14:08.782Z,10.60
2018-11-20T07:18:29.449Z,11.10
2018-11-20T07:23:02.793Z,10.33
2018-11-20T07:27:24.333Z,9.43
2018-11-20T07:31:44.930Z,10.37
2018-11-20T07:36:06.380Z,11.33
2018-11-20T07:40:26.763Z,10.83
2018-11-20T07:44:48.280Z,10.67
2018-11-20T07:49:12.545Z,10.87
2018-11-20T07:53:36.996Z,12.00
2018-11-20T07:58:01.237Z,10.77
2018-11-20T08:02:20.602Z,11.00
2018-11-20T08:06:40.763Z,11.73
2018-11-20T08:11:08.430Z,11.77
2018-11-20T08:15:33.130Z,12.77
2018-11-20T08:19:57.621Z,11.70
2018-11-20T08:24:17.814Z,11.37
2018-11-20T08:28:40.365Z,10.97
2018-11-20T08:33:00.543Z,12.80
2018-11-20T08:37:22.031Z,12.30
2018-11-20T08:41:34.997Z,12.77
2018-11-20T08:45:59.267Z,12.70
2018-11-20T08:50:29.605Z,12.27
2018-11-20T08:54:42.809Z,12.77
2018-11-20T08:59:11.366Z,12.07
2018-11-20T09:03:35.814Z,11.20
2018-11-20T09:08:06.103Z,12.23
2018-11-20T09:12:16.423Z,11.90
2018-11-20T09:16:43.513Z,11.33
2018-11-20T09:21:23.440Z,11.57
2018-11-20T09:25:43.619Z,12.30
2018-11-20T09:30:07.802Z,11.83
2018-11-20T09:34:38.312Z,12.57
2018-11-20T09:38:59.864Z,13.23
2018-11-20T09:43:21.362Z,13.07
2018-11-20T09:47:41.690Z,11.23
2018-11-20T09:52:01.725Z,11.77
2018-11-20T09:56:22.226Z,13.17
2018-11-20T10:00:52.759Z,12.37
2018-11-20T10:05:11.328Z,12.20
2018-11-20T10:09:31.655Z,13.20
2018-11-20T10:13:59.727Z,13.27
2018-11-20T10:18:21.234Z,13.20
2018-11-20T10:22:43.736Z,13.57
2018-11-20T10:27:05.456Z,12.50
2018-11-20T10:31:26.962Z,12.83
2018-11-20T10:35:54.267Z,13.03
2018-11-20T10:40:14.185Z,12.40
2018-11-20T10:44:50.543Z,12.67
2018-11-20T10:49:10.844Z,12.30
2018-11-20T10:53:26.022Z,12.33
2018-11-20T10:57:47.516Z,12.17
2018-11-20T11:02:15.308Z,12.87
2018-11-20T11:06:36.445Z,12.33
2018-11-20T11:10:50.701Z,12.60
2018-11-20T11:15:11.346Z,12.40
2018-11-20T11:19:38.404Z,12.73
2018-11-20T11:23:58.695Z,12.90
2018-11-20T11:28:26.196Z,12.57
2018-11-20T11:32:49.134Z,14.37
2018-11-20T11:36:58.757Z,12.93
2018-11-20T11:41:18.643Z,13.20
2018-11-20T11:45:39.023Z,12.70
2018-11-20T11:49:58.915Z,12.10
2018-11-20T11:54:11.716Z,12.23
2018-11-20T11:58:31.884Z,12.50
2018-11-20T12:07:14.281Z,12.67
2018-11-20T12:11:45.128Z,12.90
2018-11-20T12:16:05.355Z,10.87
2018-11-20T12:20:15.309Z,12.90
2018-11-20T12:24:55.003Z,12.50
2018-11-20T12:29:12.309Z,12.13
2018-11-20T12:33:32.308Z,12.77
2018-11-20T12:37:52.735Z,13.83
2018-11-20T12:42:17.214Z,11.97
2018-11-20T12:46:57.030Z,13.20
2018-11-20T12:51:12.566Z,11.70
2018-11-20T12:55:42.856Z,12.50
2018-11-20T13:00:04.371Z,11.97
2018-11-20T13:04:37.779Z,12.50
2018-11-20T13:08:58.098Z,12.67
2018-11-20T13:13:37.948Z,12.17
2018-11-20T13:18:14.602Z,12.20
2018-11-20T13:22:39.704Z,11.70
2018-11-20T13:26:59.704Z,11.57
2018-11-20T13:31:21.606Z,12.30
2018-11-20T13:35:43.115Z,11.53
2018-11-20T13:40:03.492Z,11.50
2018-11-20T13:44:27.990Z,11.07
2018-11-20T13:48:48.225Z,12.37
2018-11-20T13:53:24.644Z,10.90
2018-11-20T13:57:45.155Z,11.40
2018-11-20T14:02:05.671Z,12.50
2018-11-20T14:06:25.800Z,13.10
2018-11-20T14:10:46.319Z,12.60
2018-11-20T14:15:16.847Z,13.07
2018-11-20T14:19:41.303Z,12.80
2018-11-20T14:24:05.629Z,12.53
2018-11-20T14:28:26.136Z,12.77
2018-11-20T14:32:53.864Z,13.90
2018-11-20T14:37:18.248Z,12.13
2018-11-20T14:41:45.461Z,12.30
2018-11-20T14:46:15.782Z,13.03
2018-11-20T14:50:37.343Z,13.37
2018-11-20T14:55:10.959Z,13.30
2018-11-20T14:59:41.320Z,14.77
2018-11-20T15:04:01.592Z,14.13
2018-11-20T15:08:22.064Z,14.57
2018-11-20T15:12:42.664Z,14.27
2018-11-20T15:17:12.925Z,13.27
2018-11-20T15:21:33.361Z,15.33
2018-11-20T15:25:52.186Z,15.90
2018-11-20T15:30:16.685Z,14.33
2018-11-20T15:34:32.808Z,15.13
2018-11-20T15:39:03.451Z,15.50
2018-11-20T15:43:28.021Z,14.93
2018-11-20T15:47:59.914Z,16.00
2018-11-20T15:52:10.680Z,15.40
2018-11-20T15:56:35.222Z,14.17
2018-11-20T16:00:55.410Z,14.80
2018-11-20T16:05:23.140Z,15.27
2018-11-20T16:09:43.169Z,15.03
2018-11-20T16:14:03.596Z,14.37
2018-11-20T16:18:23.980Z,13.83
2018-11-20T16:22:51.462Z,15.83
2018-11-20T16:27:31.460Z,14.60
2018-11-20T17:29:01.163Z,17.95
2018-11-20T18:27:09.918Z,23.73
2018-11-20T18:31:32.054Z,22.57
2018-11-20T18:35:53.154Z,31.03
2018-11-20T18:40:21.773Z,35.63
2018-11-20T18:45:02.418Z,27.90
2018-11-20T18:49:26.582Z,36.83
2018-11-20T18:53:47.572Z,29.77
2018-11-20T18:58:17.081Z,11.17
2018-11-20T19:02:33.730Z,10.30
2018-11-20T19:07:11.242Z,11.53
2018-11-20T19:11:48.545Z,11.90
2018-11-20T19:16:10.554Z,12.80
2018-11-20T19:20:37.666Z,11.68
2018-11-20T19:25:57.055Z,11.30
2018-11-20T19:30:14.162Z,12.23
2018-11-20T19:34:27.384Z,11.00
2018-11-20T19:38:54.613Z,13.10
2018-11-20T19:43:11.920Z,11.63
2018-11-20T19:47:37.033Z,13.20
2018-11-20T19:51:51.594Z,12.60
2018-11-20T19:56:29.756Z,11.93
2018-11-20T20:01:04.691Z,12.07
2018-11-20T20:05:26.595Z,11.93
2018-11-20T20:09:48.458Z,11.70
2018-11-20T20:14:02.551Z,12.27
2018-11-20T20:18:25.758Z,12.17
2018-11-20T20:22:47.413Z,13.77
2018-11-20T20:27:16.333Z,13.83
2018-11-20T20:31:35.669Z,13.40
2018-11-20T20:36:10.886Z,14.13
2018-11-20T20:40:49.279Z,14.13
2018-11-20T20:45:27.252Z,13.50
2018-11-20T20:49:53.707Z,13.53
2018-11-20T20:54:12.533Z,14.10
2018-11-20T20:58:32.554Z,13.43
2018-11-20T21:02:48.185Z,15.90
2018-11-20T21:07:17.624Z,14.00
2018-11-20T21:11:55.926Z,15.30
2018-11-20T21:16:18.047Z,15.17
2018-11-20T21:20:40.041Z,15.93
2018-11-20T21:25:06.971Z,15.60
2018-11-20T21:29:35.724Z,15.17
2018-11-20T21:33:47.074Z,16.83
2018-11-20T21:38:19.252Z,15.30
2018-11-20T21:42:41.319Z,16.57
2018-11-20T21:46:54.911Z,15.57
2018-11-20T21:51:12.317Z,15.97
2018-11-20T21:55:41.221Z,16.50
2018-11-20T22:00:10.528Z,16.90
2018-11-20T22:04:41.256Z,17.87
2018-11-20T22:09:19.492Z,15.63
2018-11-20T22:14:00.758Z,17.57
2018-11-20T22:18:22.626Z,17.13
2018-11-20T22:22:49.792Z,16.13
2018-11-20T22:27:15.894Z,28.13
2018-11-20T22:31:47.989Z,18.53
2018-11-20T22:36:29.500Z,17.00
2018-11-20T22:40:51.430Z,18.23
2018-11-20T22:45:13.363Z,16.47
2018-11-20T22:49:40.162Z,17.70
2018-11-20T22:54:05.954Z,17.30
2018-11-20T22:58:27.622Z,17.33
2018-11-20T23:02:59.656Z,17.83
2018-11-20T23:07:21.650Z,17.60
2018-11-20T23:11:25.689Z,19.00
2018-11-20T23:15:29.727Z,17.63
2018-11-20T23:19:33.682Z,17.97
2018-11-20T23:23:37.658Z,17.17
2018-11-20T23:27:41.754Z,16.80
2018-11-20T23:31:45.699Z,15.87
2018-11-20T23:35:49.669Z,16.97
2018-11-20T23:39:53.914Z,15.53
2018-11-20T23:43:57.994Z,15.47
2018-11-20T23:48:02.012Z,16.83
2018-11-20T23:52:06.014Z,15.63
2018-11-20T23:56:10.022Z,16.90
